Time;durP1;ratioP1;P1;durP2;ratioP2;P2;SDS_P1;SDS_P2;PMS_P1;PMS_P2;Temp;Humidity;BMP_temperature;BMP_pressure;BME280_temperature;BME280_humidity;BME280_pressure;Samples;Min_cycle;Max_cycle;Signal;HPM_P1;HPM_P2
2021/12/16 00:06:54;;;;;;;0.60;0.60;;;7.70;99.90;;;;;;5125351;28;20081;-92
2021/12/16 00:09:10;;;;;;;1.63;1.52;;;6.90;99.90;;;;;;5116583;28;20138;-89
2021/12/16 00:33:19;;;;;;;0.50;0.50;;;7.40;99.90;;;;;;5114254;28;20040;-91
2021/12/16 00:35:51;;;;;;;0.75;0.73;;;7.40;99.90;;;;;;5097346;28;20036;-94
2021/12/16 00:38:17;;;;;;;0.73;0.73;;;8.90;99.90;;;;;;5097545;28;20368;-92
2021/12/16 00:40:43;;;;;;;1.85;1.15;;;8.60;99.90;;;;;;5097331;28;20039;-91
2021/12/16 00:43:24;;;;;;;0.50;0.50;;;7.90;99.90;;;;;;5097138;28;20089;-90
2021/12/16 00:49:02;;;;;;;0.77;0.77;;;8.00;99.90;;;;;;5113895;28;20119;-90
2021/12/16 00:54:12;;;;;;;1.30;1.20;;;8.00;99.90;;;;;;5114151;28;20079;-90
2021/12/16 00:56:46;;;;;;;2.53;1.50;;;7.60;99.90;;;;;;5097462;28;20439;-90
2021/12/16 00:59:14;;;;;;;0.82;0.82;;;7.50;99.90;;;;;;5097209;28;20036;-94
2021/12/16 01:01:56;;;;;;;0.70;0.70;;;7.60;99.90;;;;;;5096772;28;20047;-90
2021/12/16 01:34:38;;;;;;;1.52;1.23;;;7.60;99.90;;;;;;5113831;28;20043;-88
2021/12/16 01:47:56;;;;;;;0.50;0.50;;;8.00;99.90;;;;;;5113452;28;20479;-89
2021/12/16 01:50:16;;;;;;;0.85;0.85;;;7.70;99.90;;;;;;5112998;28;20055;-89
2021/12/16 01:55:43;;;;;;;2.60;1.77;;;7.60;99.90;;;;;;5113419;28;20035;-89
2021/12/16 01:58:13;;;;;;;0.80;0.80;;;7.60;99.90;;;;;;5096593;28;20043;-92
2021/12/16 02:01:08;;;;;;;0.98;0.80;;;7.60;99.90;;;;;;5113326;28;20052;-89
2021/12/16 02:03:43;;;;;;;0.65;0.65;;;7.60;99.90;;;;;;5096200;28;20399;-91
2021/12/16 02:06:58;;;;;;;1.98;1.77;;;8.40;99.90;;;;;;5096317;28;20040;-93
2021/12/16 02:09:35;;;;;;;1.00;1.00;;;7.60;99.90;;;;;;5096431;28;20047;-93
2021/12/16 02:36:42;;;;;;;2.15;1.60;;;7.60;99.90;;;;;;5116836;28;20054;-91
2021/12/16 02:39:25;;;;;;;1.40;1.30;;;7.50;99.90;;;;;;5099462;28;20040;-89
2021/12/16 02:41:56;;;;;;;0.98;0.88;;;7.60;99.90;;;;;;5099302;28;20043;-91
2021/12/16 02:49:39;;;;;;;0.70;0.63;;;7.60;99.90;;;;;;5116309;28;20039;-89
2021/12/16 02:52:05;;;;;;;1.48;1.38;;;7.60;99.90;;;;;;5109099;28;20107;-88
2021/12/16 02:54:31;;;;;;;0.68;0.68;;;7.60;99.90;;;;;;5115180;28;20059;-91
2021/12/16 02:56:57;;;;;;;0.70;0.70;;;7.60;99.90;;;;;;5101609;28;20039;-93
2021/12/16 02:59:28;;;;;;;1.43;1.17;;;8.70;99.90;;;;;;5100438;28;20078;-91
2021/12/16 03:01:56;;;;;;;1.25;1.15;;;7.50;99.90;;;;;;5099113;28;20131;-90
2021/12/16 03:04:26;;;;;;;1.00;0.88;;;7.50;99.90;;;;;;5099405;28;20038;-87
2021/12/16 03:06:56;;;;;;;0.90;0.90;;;7.60;99.90;;;;;;5116025;28;20507;-89
2021/12/16 03:09:48;;;;;;;1.40;1.30;;;7.50;99.90;;;;;;5098809;28;20044;-88
2021/12/16 03:15:09;;;;;;;1.02;1.02;;;7.50;99.90;;;;;;5115714;28;20134;-91
2021/12/16 03:20:38;;;;;;;0.70;0.70;;;7.60;99.90;;;;;;5105920;28;20047;-90
2021/12/16 03:26:05;;;;;;;1.05;1.02;;;;;;;;;;5116110;28;20101;-90
2021/12/16 03:37:12;;;;;;;0.98;0.93;;;8.60;99.90;;;;;;5116153;28;20047;-90
2021/12/16 03:39:40;;;;;;;0.70;0.70;;;7.60;99.90;;;;;;5098378;28;20317;-91
2021/12/16 03:42:06;;;;;;;0.90;0.90;;;7.60;99.90;;;;;;5098672;28;20395;-90
2021/12/16 03:44:48;;;;;;;0.70;0.70;;;7.60;99.90;;;;;;5097343;28;20036;-91
2021/12/16 03:47:17;;;;;;;0.60;0.60;;;7.60;99.90;;;;;;5098418;28;20047;-89
2021/12/16 03:49:42;;;;;;;1.05;1.05;;;7.70;99.90;;;;;;5098193;28;20437;-90
2021/12/16 03:52:09;;;;;;;0.93;0.93;;;7.60;99.90;;;;;;5098318;28;20035;-90
2021/12/16 03:54:41;;;;;;;1.30;1.20;;;7.60;99.90;;;;;;5097904;28;20040;-92
2021/12/16 03:57:11;;;;;;;0.70;0.70;;;7.60;99.90;;;;;;5098177;28;20036;-91
2021/12/16 03:59:39;;;;;;;0.80;0.80;;;7.60;99.90;;;;;;5114880;28;20095;-90
2021/12/16 04:02:20;;;;;;;0.93;0.93;;;7.70;99.90;;;;;;5115052;28;20043;-87
2021/12/16 04:04:48;;;;;;;1.13;1.02;;;7.60;99.90;;;;;;5098727;28;20047;-90
2021/12/16 04:07:14;;;;;;;1.42;0.90;;;7.60;99.90;;;;;;5115320;28;20483;-89
2021/12/16 04:09:40;;;;;;;26.30;1.48;;;7.60;99.90;;;;;;5097634;28;20039;-91
2021/12/16 04:12:12;;;;;;;1.40;1.02;;;7.70;99.90;;;;;;5097905;28;20130;-90
2021/12/16 04:14:41;;;;;;;2.80;1.92;;;7.60;99.90;;;;;;5097478;28;20038;-90
2021/12/16 04:17:09;;;;;;;1.50;1.40;;;9.50;99.90;;;;;;5097803;28;20081;-89
2021/12/16 04:19:35;;;;;;;0.98;0.93;;;7.60;99.90;;;;;;5114532;28;20122;-93
2021/12/16 04:22:10;;;;;;;2.67;1.10;;;7.60;99.90;;;;;;5114937;28;20462;-89
2021/12/16 04:24:38;;;;;;;1.67;1.58;;;7.60;99.90;;;;;;5116641;28;20042;-88
2021/12/16 04:27:05;;;;;;;1.23;1.13;;;7.60;99.90;;;;;;5115730;28;20509;-89
2021/12/16 04:29:31;;;;;;;0.60;0.60;;;7.60;99.90;;;;;;5098687;28;20050;-89
2021/12/16 04:31:58;;;;;;;0.73;0.73;;;7.50;99.90;;;;;;5115344;28;20483;-89
2021/12/16 04:34:24;;;;;;;0.60;0.60;;;7.60;99.90;;;;;;5114271;28;20036;-90
2021/12/16 04:36:50;;;;;;;3.40;1.77;;;7.60;99.90;;;;;;5097383;28;20046;-89
2021/12/16 04:39:19;;;;;;;1.90;1.53;;;9.00;99.90;;;;;;5097027;28;20070;-89
2021/12/16 04:41:46;;;;;;;0.65;0.65;;;7.60;99.90;;;;;;5097427;28;20031;-89
2021/12/16 04:44:14;;;;;;;2.25;2.05;;;7.60;99.90;;;;;;5097188;28;20059;-91
2021/12/16 04:46:42;;;;;;;0.80;0.80;;;7.50;99.90;;;;;;5096773;28;20047;-91
2021/12/16 04:49:10;;;;;;;0.88;0.88;;;9.80;99.90;;;;;;5097156;28;20502;-89
2021/12/16 04:51:39;;;;;;;0.60;0.60;;;7.60;99.90;;;;;;5096812;28;20047;-92
2021/12/16 04:54:06;;;;;;;0.43;0.43;;;7.60;99.90;;;;;;5096814;28;20177;-93
2021/12/16 04:56:33;;;;;;;0.70;0.70;;;7.70;99.90;;;;;;5114005;28;20046;-91
2021/12/16 04:58:59;;;;;;;;;;;7.70;99.90;;;;;;5097248;28;20036;-93
2021/12/16 05:01:25;;;;;;;0.63;0.63;;;7.60;99.90;;;;;;5096791;28;20018;-91
2021/12/16 05:03:51;;;;;;;0.90;0.90;;;7.70;99.90;;;;;;5096745;28;20089;-92
2021/12/16 05:06:17;;;;;;;1.02;1.00;;;7.70;99.90;;;;;;5096956;28;20050;-89
2021/12/16 05:08:43;;;;;;;0.70;0.70;;;7.70;99.90;;;;;;5096885;28;20116;-92
2021/12/16 05:11:14;;;;;;;1.17;0.70;;;7.70;99.90;;;;;;5096953;28;20067;-90
2021/12/16 05:13:41;;;;;;;2.67;1.15;;;7.70;99.90;;;;;;5096721;28;20043;-91
2021/12/16 05:16:08;;;;;;;0.60;0.60;;;7.70;99.90;;;;;;5096832;28;20040;-92
2021/12/16 05:18:36;;;;;;;0.50;0.50;;;7.70;99.90;;;;;;5096736;28;20039;-90
2021/12/16 05:21:12;;;;;;;3.28;1.80;;;7.70;99.90;;;;;;5113771;28;20042;-92
2021/12/16 05:26:21;;;;;;;2.90;1.73;;;7.70;99.90;;;;;;5113811;28;20391;-92
2021/12/16 05:28:53;;;;;;;0.50;0.50;;;7.70;99.90;;;;;;5113602;28;20035;-92
2021/12/16 05:31:21;;;;;;;0.60;0.60;;;7.80;99.90;;;;;;5096495;28;20043;-90
2021/12/16 05:33:48;;;;;;;0.80;0.80;;;7.80;99.90;;;;;;5096802;28;20043;-90
2021/12/16 05:36:14;;;;;;;;;;;7.80;99.90;;;;;;5096891;28;20039;-93
2021/12/16 05:38:40;;;;;;;0.40;0.40;;;7.70;99.90;;;;;;5113414;28;19922;-91
2021/12/16 05:41:09;;;;;;;0.50;0.50;;;7.80;99.90;;;;;;5115737;28;20039;-86
2021/12/16 05:43:35;;;;;;;0.60;0.60;;;7.80;99.90;;;;;;5110988;28;20285;-76
2021/12/16 05:46:02;;;;;;;1.10;0.98;;;7.80;99.90;;;;;;5119086;28;20044;-84
2021/12/16 05:48:31;;;;;;;0.50;0.50;;;7.80;99.90;;;;;;5114154;28;20059;-86
2021/12/16 05:51:05;;;;;;;0.80;0.80;;;7.80;99.90;;;;;;5096004;28;20075;-87
2021/12/16 05:53:31;;;;;;;0.98;0.98;;;7.80;99.90;;;;;;5096270;28;20039;-89
2021/12/16 05:55:58;;;;;;;0.70;0.70;;;7.80;99.90;;;;;;5113956;28;20505;-88
2021/12/16 05:58:24;;;;;;;1.65;1.05;;;7.90;99.90;;;;;;5097014;28;20032;-89
2021/12/16 06:00:59;;;;;;;0.50;0.50;;;7.80;99.90;;;;;;5113514;28;20135;-86
2021/12/16 06:03:25;;;;;;;1.73;1.63;;;7.80;99.90;;;;;;5112883;28;20048;-90
2021/12/16 06:05:52;;;;;;;0.63;0.63;;;7.90;99.90;;;;;;5113488;28;20046;-91
2021/12/16 06:08:18;;;;;;;;;;;7.80;99.90;;;;;;5100580;28;20051;-88
2021/12/16 06:13:10;;;;;;;0.70;0.70;;;7.80;99.90;;;;;;5118391;28;20096;-87
2021/12/16 06:29:00;;;;;;;0.60;0.60;;;7.80;99.90;;;;;;5116828;28;20058;-91
2021/12/16 06:31:25;;;;;;;0.63;0.63;;;7.90;99.90;;;;;;5116896;28;20075;-87
2021/12/16 06:33:51;;;;;;;0.50;0.50;;;7.90;99.90;;;;;;5117961;28;20036;-86
2021/12/16 06:36:17;;;;;;;0.40;0.40;;;7.80;99.90;;;;;;5104846;28;20037;-87
2021/12/16 06:38:43;;;;;;;0.68;0.68;;;7.90;99.90;;;;;;5102889;28;20039;-89
2021/12/16 06:41:08;;;;;;;1.08;0.85;;;7.80;99.90;;;;;;5100801;28;20039;-87
2021/12/16 06:43:35;;;;;;;0.47;0.47;;;7.80;99.90;;;;;;5099444;28;20514;-88
2021/12/16 06:46:05;;;;;;;0.60;0.60;;;7.80;99.90;;;;;;5099452;28;20075;-89
2021/12/16 06:48:34;;;;;;;0.60;0.60;;;8.40;99.90;;;;;;5099119;28;20059;-88
2021/12/16 06:51:05;;;;;;;0.60;0.60;;;7.80;99.90;;;;;;5099239;28;20047;-80
2021/12/16 06:53:52;;;;;;;0.50;0.50;;;7.80;99.90;;;;;;5117841;28;20096;-88
2021/12/16 06:56:35;;;;;;;0.60;0.60;;;7.80;99.90;;;;;;5117677;28;20036;-87
2021/12/16 06:59:06;;;;;;;0.95;0.95;;;7.90;99.90;;;;;;5100103;28;20047;-87
2021/12/16 07:04:01;;;;;;;0.50;0.50;;;7.90;99.90;;;;;;5115604;28;20051;-83
2021/12/16 07:06:30;;;;;;;0.55;0.55;;;7.80;99.90;;;;;;5116992;28;20047;-80
2021/12/16 07:09:04;;;;;;;0.50;0.50;;;7.80;99.90;;;;;;5115750;28;20074;-82
2021/12/16 07:11:30;;;;;;;0.60;0.60;;;7.80;99.90;;;;;;5116686;28;20050;-82
2021/12/16 07:13:59;;;;;;;0.60;0.55;;;7.80;99.90;;;;;;5116760;28;20107;-83
2021/12/16 07:16:27;;;;;;;0.50;0.50;;;7.80;99.90;;;;;;5116617;28;20036;-81
2021/12/16 07:18:55;;;;;;;0.50;0.50;;;7.80;99.90;;;;;;5098318;28;20056;-80
2021/12/16 07:21:20;;;;;;;0.60;0.60;;;7.70;99.90;;;;;;5115728;28;20035;-80
2021/12/16 07:23:46;;;;;;;0.63;0.60;;;7.80;99.90;;;;;;5116667;28;20035;-83
2021/12/16 07:26:12;;;;;;;0.50;0.50;;;7.70;99.90;;;;;;5116375;28;20372;-83
2021/12/16 07:28:38;;;;;;;0.77;0.77;;;7.70;99.90;;;;;;5116503;28;20125;-83
2021/12/16 07:31:04;;;;;;;0.60;0.60;;;7.70;99.90;;;;;;5098033;28;20301;-82
2021/12/16 07:33:29;;;;;;;8.07;1.77;;;7.70;99.90;;;;;;5110672;28;20070;-83
2021/12/16 07:35:56;;;;;;;1.15;0.93;;;7.60;99.90;;;;;;5114708;28;20047;-81
2021/12/16 07:38:23;;;;;;;0.52;0.52;;;7.60;99.90;;;;;;5116240;28;20046;-81
2021/12/16 07:40:50;;;;;;;0.70;0.70;;;7.60;99.90;;;;;;5116526;28;20035;-82
2021/12/16 07:43:56;;;;;;;1.67;1.58;;;7.50;99.90;;;;;;5116681;28;20439;-77
2021/12/16 07:46:10;;;;;;;0.50;0.50;;;7.50;99.90;;;;;;5114195;28;20514;-82
2021/12/16 07:48:36;;;;;;;0.52;0.50;;;7.50;99.90;;;;;;5116410;28;20499;-85
2021/12/16 07:51:04;;;;;;;2.30;1.15;;;7.40;99.90;;;;;;5115298;28;20044;-85
2021/12/16 07:53:31;;;;;;;1.52;1.38;;;7.40;99.90;;;;;;5124184;28;20084;-82
2021/12/16 07:55:57;;;;;;;0.60;0.60;;;7.30;99.90;;;;;;5118969;28;20035;-85
2021/12/16 07:58:23;;;;;;;0.60;0.60;;;7.30;99.90;;;;;;5098213;28;20032;-85
2021/12/16 08:00:50;;;;;;;0.70;0.70;;;7.20;99.90;;;;;;5131644;27;20096;-85
2021/12/16 08:03:17;;;;;;;;;;;7.20;99.90;;;;;;5116275;28;20089;-86
2021/12/16 08:05:53;;;;;;;2.92;1.08;;;7.20;99.90;;;;;;5131573;27;19965;-85
2021/12/16 08:08:19;;;;;;;1.40;1.30;;;7.10;99.90;;;;;;5114592;28;20040;-85
2021/12/16 08:10:45;;;;;;;1.92;1.70;;;7.20;99.90;;;;;;5115711;28;20050;-85
2021/12/16 08:13:13;;;;;;;0.50;0.50;;;7.10;99.90;;;;;;5149031;27;20035;-82
2021/12/16 08:15:39;;;;;;;0.73;0.73;;;7.10;99.90;;;;;;5112914;28;20055;-82
2021/12/16 08:18:05;;;;;;;0.80;0.80;;;7.00;99.90;;;;;;5115453;28;20035;-81
2021/12/16 08:20:32;;;;;;;0.50;0.50;;;7.70;99.90;;;;;;5114808;28;20391;-81
2021/12/16 08:22:57;;;;;;;1.98;0.93;;;7.00;99.90;;;;;;5115296;28;20035;-84
2021/12/16 08:25:26;;;;;;;0.80;0.80;;;6.90;99.90;;;;;;5115165;28;20395;-86
2021/12/16 08:27:52;;;;;;;0.60;0.60;;;6.90;99.90;;;;;;5113882;28;20184;-85
2021/12/16 08:30:22;;;;;;;0.60;0.60;;;6.90;99.90;;;;;;5115060;28;20058;-84
2021/12/16 08:32:47;;;;;;;0.52;0.52;;;6.90;99.90;;;;;;5114682;28;20031;-81
2021/12/16 08:35:14;;;;;;;3.85;1.15;;;7.00;99.90;;;;;;5115269;28;20498;-77
2021/12/16 08:37:40;;;;;;;;;;;7.00;99.90;;;;;;5114505;28;20035;-85
2021/12/16 08:40:10;;;;;;;1.15;1.15;;;7.00;99.90;;;;;;5113938;28;19919;-82
2021/12/16 08:42:36;;;;;;;3.53;0.85;;;7.10;99.90;;;;;;5114902;27;20034;-83
2021/12/16 08:45:03;;;;;;;1.42;1.33;;;7.10;99.90;;;;;;5114982;28;20027;-80
2021/12/16 08:47:31;;;;;;;0.70;0.60;;;7.20;99.90;;;;;;5114076;28;20134;-83
2021/12/16 08:49:56;;;;;;;1.10;0.88;;;7.30;99.90;;;;;;5113230;28;20633;-82
2021/12/16 08:52:22;;;;;;;0.70;0.70;;;7.40;99.90;;;;;;5114731;28;20052;-83
2021/12/16 08:54:49;;;;;;;0.50;0.50;;;7.50;99.90;;;;;;5114769;28;20036;-82
2021/12/16 08:57:15;;;;;;;0.60;0.60;;;7.50;99.90;;;;;;5114289;28;20088;-83
2021/12/16 08:59:43;;;;;;;0.50;0.50;;;7.60;99.90;;;;;;5114726;28;20428;-84
2021/12/16 09:02:09;;;;;;;2.28;1.40;;;7.60;99.90;;;;;;5113488;28;20316;-83
2021/12/16 09:04:37;;;;;;;3.22;1.58;;;7.70;99.90;;;;;;5113400;28;20047;-82
2021/12/16 09:07:05;;;;;;;0.80;0.80;;;7.70;99.90;;;;;;5113981;28;20035;-81
2021/12/16 09:09:34;;;;;;;1.98;1.88;;;7.80;99.90;;;;;;5113194;28;20035;-82
2021/12/16 09:12:09;;;;;;;0.75;0.75;;;7.80;99.90;;;;;;5114168;28;20044;-82
2021/12/16 09:14:36;;;;;;;0.65;0.65;;;7.80;99.90;;;;;;5112997;28;20052;-83
2021/12/16 09:17:04;;;;;;;3.25;1.15;;;7.90;99.90;;;;;;5112818;28;20035;-81
2021/12/16 09:19:30;;;;;;;0.75;0.75;;;7.90;99.90;;;;;;5114460;28;20036;-80
2021/12/16 09:21:56;;;;;;;1.20;1.10;;;7.90;99.90;;;;;;5114224;28;20391;-81
2021/12/16 09:24:21;;;;;;;1.60;1.50;;;8.00;99.90;;;;;;5114140;28;20092;-81
2021/12/16 09:26:47;;;;;;;1.77;1.67;;;8.00;99.90;;;;;;5112896;28;20503;-81
2021/12/16 09:29:13;;;;;;;11.75;1.63;;;8.00;99.90;;;;;;5114126;28;20040;-83
2021/12/16 09:31:39;;;;;;;0.50;0.50;;;8.20;99.90;;;;;;5114122;28;20083;-82
2021/12/16 09:34:07;;;;;;;1.10;1.02;;;8.10;99.90;;;;;;5112798;28;20039;-83
2021/12/16 09:36:36;;;;;;;0.65;0.65;;;8.10;99.90;;;;;;5112439;28;20089;-82
2021/12/16 09:39:06;;;;;;;0.77;0.77;;;8.10;99.90;;;;;;5112485;28;20472;-82
2021/12/16 09:41:32;;;;;;;0.60;0.60;;;8.10;99.90;;;;;;5113930;28;20040;-82
2021/12/16 09:43:59;;;;;;;1.73;1.27;;;8.20;99.90;;;;;;5118490;28;20075;-82
2021/12/16 09:46:27;;;;;;;0.50;0.50;;;8.20;99.90;;;;;;5116997;28;20469;-80
2021/12/16 09:48:54;;;;;;;1.25;1.20;;;8.20;99.90;;;;;;5117870;28;20059;-80
2021/12/16 09:51:23;;;;;;;0.75;0.70;;;8.20;99.90;;;;;;5118142;28;20164;-81
2021/12/16 09:53:59;;;;;;;2.05;1.00;;;8.20;99.90;;;;;;5116971;28;20126;-80
2021/12/16 09:56:27;;;;;;;0.50;0.50;;;8.20;99.90;;;;;;5117878;28;20051;-81
2021/12/16 09:58:54;;;;;;;0.50;0.50;;;8.20;99.90;;;;;;5117992;28;20042;-82
2021/12/16 10:01:21;;;;;;;;;;;8.50;99.90;;;;;;5117011;28;20497;-81
2021/12/16 10:03:52;;;;;;;1.10;1.10;;;8.30;99.90;;;;;;5117697;27;19916;-81
2021/12/16 10:06:19;;;;;;;1.58;1.40;;;8.30;99.90;;;;;;5117803;28;20475;-81
2021/12/16 10:08:47;;;;;;;2.03;1.85;;;8.30;99.90;;;;;;5117638;28;20104;-80
2021/12/16 10:11:15;;;;;;;0.63;0.63;;;8.30;99.90;;;;;;5117789;28;20064;-80
2021/12/16 10:19:07;;;;;;;1.70;0.80;;;8.40;99.90;;;;;;5117859;28;20032;-82
2021/12/16 10:21:32;;;;;;;0.80;0.80;;;8.40;99.90;;;;;;5117702;28;20051;-82
2021/12/16 10:23:58;;;;;;;1.10;1.10;;;8.50;99.90;;;;;;5116078;28;20032;-84
2021/12/16 10:26:26;;;;;;;0.50;0.50;;;8.50;99.90;;;;;;5117572;28;20062;-84
2021/12/16 10:28:58;;;;;;;0.90;0.88;;;8.50;99.90;;;;;;5117445;28;20089;-84
2021/12/16 10:31:28;;;;;;;0.60;0.60;;;8.50;99.90;;;;;;5116154;28;20071;-82
2021/12/16 10:34:00;;;;;;;0.65;0.65;;;8.60;99.90;;;;;;5116650;28;20067;-84
2021/12/16 10:36:42;;;;;;;0.60;0.60;;;8.60;99.90;;;;;;5117117;28;20074;-82
2021/12/16 10:39:19;;;;;;;0.55;0.55;;;8.60;99.90;;;;;;5115717;28;20075;-79
2021/12/16 10:41:52;;;;;;;0.43;0.43;;;8.60;99.90;;;;;;5117116;28;20043;-79
2021/12/16 10:44:22;;;;;;;0.60;0.60;;;8.70;99.90;;;;;;5117338;28;20043;-79
2021/12/16 10:47:00;;;;;;;0.55;0.55;;;8.70;99.90;;;;;;5116761;28;20484;-80
2021/12/16 10:49:31;;;;;;;0.50;0.50;;;8.60;99.90;;;;;;5117035;28;20044;-81
2021/12/16 10:52:04;;;;;;;0.95;0.95;;;8.70;99.90;;;;;;5115537;28;20119;-80
2021/12/16 10:54:41;;;;;;;0.50;0.50;;;8.70;99.90;;;;;;5116211;27;20043;-83
2021/12/16 10:57:19;;;;;;;0.65;0.65;;;8.70;99.90;;;;;;5115512;28;20043;-82
2021/12/16 10:59:54;;;;;;;0.60;0.60;;;8.70;99.90;;;;;;5117095;28;20452;-81
2021/12/16 11:02:27;;;;;;;0.70;0.70;;;8.60;99.90;;;;;;5116601;27;20043;-79
2021/12/16 11:05:00;;;;;;;4.03;0.90;;;8.60;99.90;;;;;;5115639;28;20044;-81
2021/12/16 11:07:37;;;;;;;1.75;0.70;;;8.60;99.90;;;;;;5114957;28;20046;-80
2021/12/16 11:10:39;;;;;;;0.60;0.60;;;8.70;99.90;;;;;;5116586;28;20032;-80
2021/12/16 11:13:10;;;;;;;0.55;0.55;;;8.60;99.90;;;;;;5115537;28;20162;-79
2021/12/16 11:15:46;;;;;;;0.95;0.95;;;8.60;99.90;;;;;;5116785;28;20121;-80
2021/12/16 11:18:23;;;;;;;0.70;0.70;;;8.60;99.90;;;;;;5116296;28;20467;-78
2021/12/16 11:21:09;;;;;;;0.63;0.63;;;8.60;99.90;;;;;;5116700;27;20043;-77
2021/12/16 11:23:40;;;;;;;0.60;0.60;;;8.60;99.90;;;;;;5116548;28;20129;-81
2021/12/16 11:26:17;;;;;;;0.95;0.95;;;8.60;99.90;;;;;;5115947;28;20047;-78
2021/12/16 11:28:49;;;;;;;0.98;0.95;;;8.60;99.90;;;;;;5115239;28;20035;-80
2021/12/16 11:31:23;;;;;;;1.65;1.27;;;8.70;99.90;;;;;;5116258;28;20039;-82
2021/12/16 11:33:57;;;;;;;1.13;1.02;;;8.70;99.90;;;;;;5115413;28;20499;-81
2021/12/16 11:36:35;;;;;;;0.40;0.40;;;8.70;99.90;;;;;;5116444;28;20136;-82
2021/12/16 11:39:05;;;;;;;0.70;0.70;;;8.80;99.90;;;;;;5116323;28;20047;-80
2021/12/16 11:41:46;;;;;;;0.73;0.73;;;8.80;99.90;;;;;;5114676;28;20502;-80
2021/12/16 11:44:19;;;;;;;0.75;0.70;;;8.80;99.90;;;;;;5116355;28;20043;-81
2021/12/16 11:47:01;;;;;;;0.52;0.50;;;8.80;99.90;;;;;;5114974;28;20055;-82
2021/12/16 11:49:38;;;;;;;0.50;0.50;;;8.80;99.90;;;;;;5116150;28;20044;-80
2021/12/16 11:52:06;;;;;;;0.77;0.77;;;8.80;99.90;;;;;;5114803;28;20043;-79
2021/12/16 11:54:56;;;;;;;0.90;0.90;;;8.80;99.90;;;;;;5114634;28;20044;-77
2021/12/16 11:57:41;;;;;;;0.47;0.47;;;8.90;99.90;;;;;;5115933;28;20074;-80
2021/12/16 12:00:12;;;;;;;0.95;0.93;;;8.90;99.90;;;;;;5115608;28;20518;-80
2021/12/16 12:02:41;;;;;;;0.70;0.70;;;8.90;99.90;;;;;;5115839;28;20371;-80
2021/12/16 12:05:20;;;;;;;0.75;0.75;;;8.90;99.90;;;;;;5113679;28;20445;-79
2021/12/16 12:07:54;;;;;;;0.60;0.60;;;8.90;99.90;;;;;;5115767;28;20039;-82
2021/12/16 12:10:47;;;;;;;0.68;0.68;;;8.90;99.90;;;;;;5115531;28;20042;-80
2021/12/16 12:13:19;;;;;;;1.48;0.70;;;8.90;99.90;;;;;;5114281;28;20114;-78
2021/12/16 12:16:06;;;;;;;0.60;0.60;;;8.90;99.90;;;;;;5115577;28;20036;-79
2021/12/16 12:18:44;;;;;;;0.70;0.70;;;9.00;99.90;;;;;;5114650;28;20547;-79
2021/12/16 12:21:24;;;;;;;0.50;0.50;;;9.00;99.90;;;;;;5113979;28;20522;-81
2021/12/16 12:23:57;;;;;;;1.13;1.05;;;9.00;99.90;;;;;;5115321;28;20052;-80
2021/12/16 12:26:24;;;;;;;1.85;1.10;;;9.00;99.90;;;;;;5115384;28;20039;-79
2021/12/16 12:28:54;;;;;;;0.70;0.70;;;8.90;99.90;;;;;;5114804;28;20383;-79
2021/12/16 12:31:24;;;;;;;0.60;0.60;;;9.00;99.90;;;;;;5102233;28;20046;-80
2021/12/16 12:33:51;;;;;;;0.50;0.50;;;9.00;99.90;;;;;;5105666;28;20693;-80
2021/12/16 12:36:18;;;;;;;0.60;0.60;;;9.00;99.90;;;;;;5094353;28;20365;-81
2021/12/16 12:38:44;;;;;;;0.50;0.50;;;8.90;99.90;;;;;;5094697;28;20028;-80
2021/12/16 12:41:10;;;;;;;1.20;1.10;;;9.00;99.90;;;;;;5093348;28;20040;-80
2021/12/16 12:43:37;;;;;;;0.68;0.68;;;9.00;99.90;;;;;;5094508;28;20097;-79
2021/12/16 12:46:05;;;;;;;;;;;9.00;99.90;;;;;;5127738;27;20055;-79
2021/12/16 12:48:36;;;;;;;0.50;0.50;;;9.00;99.90;;;;;;5093807;28;19920;-79
2021/12/16 12:51:04;;;;;;;1.13;1.02;;;9.00;99.90;;;;;;5094135;28;20036;-78
2021/12/16 12:53:36;;;;;;;0.40;0.40;;;9.00;99.90;;;;;;5094307;28;20044;-80
2021/12/16 12:56:33;;;;;;;1.02;0.93;;;8.90;99.90;;;;;;5093932;28;20054;-80
2021/12/16 12:59:05;;;;;;;0.52;0.52;;;9.00;99.90;;;;;;5085123;28;20430;-82
2021/12/16 13:01:50;;;;;;;2.92;1.30;;;9.00;99.90;;;;;;5093802;28;20441;-79
2021/12/16 13:04:21;;;;;;;0.85;0.85;;;9.00;99.90;;;;;;5094117;28;20388;-78
2021/12/16 13:07:02;;;;;;;0.77;0.77;;;9.00;99.90;;;;;;5094035;28;20373;-76
2021/12/16 13:09:30;;;;;;;1.80;1.42;;;9.00;99.90;;;;;;5094030;28;20040;-76
2021/12/16 13:11:58;;;;;;;0.40;0.40;;;9.00;99.90;;;;;;5093512;28;20093;-78
2021/12/16 13:14:45;;;;;;;0.65;0.65;;;9.00;99.90;;;;;;5093880;28;20119;-77
2021/12/16 13:23:18;;;;;;;1.20;1.05;;;9.00;99.90;;;;;;5093770;28;20051;-76
2021/12/16 13:26:08;;;;;;;0.50;0.50;;;8.90;99.90;;;;;;5093789;28;20051;-77
2021/12/16 13:31:03;;;;;;;0.65;0.65;;;9.00;99.90;;;;;;5093643;28;20196;-80
2021/12/16 13:33:37;;;;;;;1.30;1.20;;;9.00;99.90;;;;;;5093342;28;20047;-79
2021/12/16 13:36:13;;;;;;;0.60;0.60;;;9.00;99.90;;;;;;5092270;28;20043;-81
2021/12/16 13:38:48;;;;;;;0.70;0.70;;;9.00;99.90;;;;;;5093483;28;20166;-82
2021/12/16 13:41:23;;;;;;;1.10;0.85;;;9.00;99.90;;;;;;5093544;28;20036;-79
2021/12/16 13:44:03;;;;;;;1.15;1.05;;;9.00;99.90;;;;;;5093609;28;20043;-77
2021/12/16 13:46:37;;;;;;;0.52;0.52;;;9.00;99.90;;;;;;5093403;28;20044;-81
2021/12/16 14:01:28;;;;;;;0.50;0.50;;;8.90;99.90;;;;;;5093432;28;20127;-79
2021/12/16 14:03:53;;;;;;;0.70;0.70;;;8.90;99.90;;;;;;5090993;28;20056;-79
2021/12/16 14:06:38;;;;;;;0.40;0.40;;;8.90;99.90;;;;;;5093305;28;20293;-80
2021/12/16 14:09:16;;;;;;;0.40;0.40;;;8.90;99.90;;;;;;5093346;28;20036;-80
2021/12/16 14:23:22;;;;;;;0.63;0.63;;;8.90;99.90;;;;;;5092951;28;20487;-79
2021/12/16 14:26:08;;;;;;;0.60;0.60;;;8.90;99.90;;;;;;5093307;28;20040;-77
2021/12/16 14:31:52;;;;;;;0.73;0.73;;;8.80;99.90;;;;;;5095233;28;20048;-80
2021/12/16 14:34:52;;;;;;;1.20;1.10;;;8.80;99.90;;;;;;5096526;28;20044;-78
2021/12/16 14:48:03;;;;;;;0.73;0.73;;;8.80;99.90;;;;;;5095327;28;20066;-80
2021/12/16 14:50:34;;;;;;;0.50;0.50;;;8.80;99.90;;;;;;5096584;28;20059;-79
2021/12/16 14:53:00;;;;;;;0.55;0.55;;;8.80;99.90;;;;;;5096667;28;20043;-81
2021/12/16 14:55:27;;;;;;;0.90;0.73;;;8.70;99.90;;;;;;5096665;28;20476;-80
2021/12/16 14:57:56;;;;;;;0.85;0.85;;;8.70;99.90;;;;;;5096112;28;20028;-79
2021/12/16 15:00:29;;;;;;;0.95;0.82;;;8.70;99.90;;;;;;5096339;28;20423;-79
2021/12/16 15:03:11;;;;;;;0.70;0.70;;;8.80;99.90;;;;;;5096485;28;20047;-81
2021/12/16 15:05:50;;;;;;;1.17;1.15;;;8.70;99.90;;;;;;5096417;28;20036;-79
2021/12/16 15:08:36;;;;;;;0.50;0.50;;;8.70;99.90;;;;;;5095231;28;20368;-79
2021/12/16 15:11:05;;;;;;;0.40;0.40;;;8.70;99.90;;;;;;5094631;28;20050;-81
2021/12/16 15:13:50;;;;;;;1.25;1.05;;;8.70;99.90;;;;;;5095866;28;20071;-81
2021/12/16 15:16:35;;;;;;;0.50;0.50;;;8.70;99.90;;;;;;5095993;28;20043;-81
2021/12/16 15:38:41;;;;;;;4.05;2.15;;;8.70;99.90;;;;;;5094721;28;20155;-84
2021/12/16 15:43:56;;;;;;;0.50;0.50;;;8.70;99.90;;;;;;5093831;28;20048;-85
2021/12/16 15:46:27;;;;;;;0.95;0.95;;;8.60;99.90;;;;;;5095447;28;20476;-80
2021/12/16 15:48:54;;;;;;;0.60;0.60;;;8.60;99.90;;;;;;5095251;28;20052;-82
2021/12/16 15:51:23;;;;;;;0.50;0.50;;;8.60;99.90;;;;;;5095480;28;20039;-81
2021/12/16 15:53:52;;;;;;;0.57;0.57;;;8.60;99.90;;;;;;5095602;28;20036;-81
2021/12/16 15:56:30;;;;;;;0.57;0.57;;;8.60;99.90;;;;;;5095567;28;20097;-81
2021/12/16 15:59:06;;;;;;;;;;;8.60;99.90;;;;;;5096047;28;20036;-80
2021/12/16 16:01:45;;;;;;;1.10;1.10;;;8.60;99.90;;;;;;5095533;28;19920;-79
2021/12/16 16:04:18;;;;;;;0.77;0.77;;;8.60;99.90;;;;;;5094328;28;20071;-84
2021/12/16 16:07:02;;;;;;;0.60;0.60;;;8.60;99.90;;;;;;5095447;28;20067;-80
2021/12/16 16:09:42;;;;;;;1.48;1.30;;;8.60;99.90;;;;;;5095447;28;20039;-79
2021/12/16 16:12:15;;;;;;;0.63;0.63;;;8.50;99.90;;;;;;5093351;28;20396;-81
2021/12/16 16:14:44;;;;;;;0.63;0.63;;;8.50;99.90;;;;;;5095305;28;20412;-78
2021/12/16 16:17:15;;;;;;;0.95;0.95;;;8.50;99.90;;;;;;5093921;28;20133;-82
2021/12/16 16:19:41;;;;;;;0.85;0.85;;;8.50;99.90;;;;;;5093568;28;20042;-80
2021/12/16 16:22:08;;;;;;;1.05;1.00;;;8.50;99.90;;;;;;5110490;28;20040;-78
2021/12/16 16:24:35;;;;;;;0.80;0.80;;;8.50;99.90;;;;;;5093426;28;20048;-79
2021/12/16 16:27:05;;;;;;;0.88;0.88;;;8.40;99.90;;;;;;5076293;28;20047;-81
2021/12/16 16:29:33;;;;;;;0.50;0.50;;;8.40;99.90;;;;;;5094741;28;20475;-81
2021/12/16 16:31:59;;;;;;;1.15;1.05;;;8.40;99.90;;;;;;5094781;28;20119;-81
2021/12/16 16:34:47;;;;;;;1.50;1.33;;;8.40;99.90;;;;;;5093383;28;20040;-81
2021/12/16 16:37:21;;;;;;;0.50;0.50;;;8.40;99.90;;;;;;5093280;28;20511;-80
2021/12/16 16:43:18;;;;;;;0.50;0.50;;;8.40;99.90;;;;;;5072409;28;20452;-78
2021/12/16 16:45:44;;;;;;;0.50;0.50;;;8.40;99.90;;;;;;5093063;28;20036;-82
2021/12/16 16:51:07;;;;;;;0.63;0.63;;;8.30;99.90;;;;;;5092536;28;20044;-81
2021/12/16 16:53:45;;;;;;;0.50;0.50;;;8.30;99.90;;;;;;5094476;28;20035;-81
2021/12/16 16:56:11;;;;;;;0.80;0.80;;;8.30;99.90;;;;;;5094498;28;20040;-79
2021/12/16 16:58:37;;;;;;;0.82;0.77;;;8.30;99.90;;;;;;5094401;28;20028;-80
2021/12/16 17:01:03;;;;;;;0.75;0.75;;;8.20;99.90;;;;;;5094494;28;20416;-80
2021/12/16 17:03:30;;;;;;;0.80;0.80;;;8.20;99.90;;;;;;5094423;28;20075;-83
2021/12/16 17:05:59;;;;;;;;;;;8.20;99.90;;;;;;5094494;28;20051;-79